createdAt,value
2019-03-30T00:00:47.953Z,52.30
2019-03-30T00:03:14.590Z,52.20
2019-03-30T00:05:41.457Z,52.50
2019-03-30T00:08:08.179Z,52.70
2019-03-30T00:10:34.818Z,53.00
2019-03-30T00:13:01.474Z,53.00
2019-03-30T00:15:28.130Z,52.80
2019-03-30T00:17:54.637Z,53.00
2019-03-30T00:20:21.287Z,53.00
2019-03-30T00:22:47.934Z,53.00
2019-03-30T00:25:14.549Z,53.30
2019-03-30T00:27:41.194Z,52.10
2019-03-30T00:30:08.142Z,53.30
2019-03-30T00:32:34.778Z,53.20
2019-03-30T00:35:02.793Z,52.90
2019-03-30T00:37:29.464Z,53.00
2019-03-30T00:39:56.091Z,53.00
2019-03-30T00:42:22.731Z,52.70
2019-03-30T00:44:49.414Z,52.90
2019-03-30T00:47:16.074Z,52.60
2019-03-30T00:49:49.056Z,52.60
2019-03-30T00:52:11.060Z,52.80
2019-03-30T00:54:37.706Z,52.70
2019-03-30T00:57:04.323Z,53.00
2019-03-30T00:59:31.019Z,52.70
2019-03-30T01:01:57.634Z,53.10
2019-03-30T01:04:24.266Z,52.90
2019-03-30T01:06:50.893Z,52.70
2019-03-30T01:09:17.547Z,52.90
2019-03-30T01:11:44.168Z,53.10
2019-03-30T01:14:11.334Z,53.20
2019-03-30T01:16:37.937Z,53.00
2019-03-30T01:19:04.596Z,53.20
2019-03-30T01:21:31.409Z,53.20
2019-03-30T01:23:57.953Z,53.00
2019-03-30T01:26:24.610Z,53.00
2019-03-30T01:28:51.246Z,53.00
2019-03-30T01:31:17.870Z,52.70
2019-03-30T01:33:44.379Z,52.90
2019-03-30T01:36:11.120Z,52.70
2019-03-30T01:38:37.748Z,52.80
2019-03-30T01:41:04.356Z,52.80
2019-03-30T01:43:30.978Z,52.60
2019-03-30T01:45:58.402Z,53.00
2019-03-30T01:48:25.024Z,51.70
2019-03-30T01:50:51.778Z,51.80
2019-03-30T01:53:18.401Z,52.40
2019-03-30T01:55:45.031Z,52.60
2019-03-30T01:58:11.742Z,52.80
2019-03-30T02:00:38.846Z,53.10
2019-03-30T02:03:05.458Z,53.00
2019-03-30T02:05:32.145Z,53.00
2019-03-30T02:07:58.773Z,53.20
2019-03-30T02:10:41.315Z,53.10
2019-03-30T02:13:07.939Z,53.40
2019-03-30T02:15:34.554Z,53.60
2019-03-30T02:18:01.189Z,53.50
2019-03-30T02:20:45.436Z,53.80
2019-03-30T02:23:12.373Z,54.10
2019-03-30T02:25:38.994Z,54.90
2019-03-30T02:28:07.140Z,55.10
2019-03-30T02:30:34.387Z,55.00
2019-03-30T02:33:01.017Z,55.40
2019-03-30T02:35:27.743Z,54.80
2019-03-30T02:37:54.374Z,55.20
2019-03-30T02:40:20.990Z,55.80
2019-03-30T02:42:47.659Z,55.60
2019-03-30T02:45:14.278Z,55.80
2019-03-30T02:47:40.925Z,55.90
2019-03-30T02:50:07.822Z,56.10
2019-03-30T02:52:34.485Z,55.90
2019-03-30T02:55:01.142Z,56.30
2019-03-30T02:57:27.732Z,56.80
2019-03-30T02:59:54.426Z,56.80
2019-03-30T03:02:21.171Z,56.90
2019-03-30T03:04:47.797Z,56.60
2019-03-30T03:07:14.430Z,57.30
2019-03-30T03:09:41.041Z,57.50
2019-03-30T03:12:07.867Z,56.80
2019-03-30T03:14:34.534Z,56.70
2019-03-30T03:17:01.150Z,56.30
2019-03-30T03:19:28.070Z,55.90
2019-03-30T03:21:54.947Z,55.50
2019-03-30T03:24:21.563Z,55.70
2019-03-30T03:26:48.201Z,56.00
2019-03-30T03:29:14.855Z,55.70
2019-03-30T03:31:41.475Z,55.60
2019-03-30T03:34:08.436Z,56.30
2019-03-30T03:36:35.510Z,56.10
2019-03-30T03:39:04.093Z,56.30
2019-03-30T03:41:30.709Z,56.30
2019-03-30T03:43:57.359Z,55.90
2019-03-30T03:46:23.979Z,56.10
2019-03-30T03:48:50.607Z,56.20
2019-03-30T03:51:25.998Z,55.70
2019-03-30T03:53:47.651Z,56.10
2019-03-30T03:56:15.024Z,56.10
2019-03-30T03:58:44.609Z,55.60
2019-03-30T04:01:13.116Z,56.20
2019-03-30T04:03:40.628Z,56.10
2019-03-30T04:06:07.308Z,56.30
2019-03-30T04:08:34.914Z,55.90
2019-03-30T04:11:02.855Z,55.90
2019-03-30T04:13:30.011Z,56.00
2019-03-30T04:15:56.808Z,55.70
2019-03-30T04:18:23.926Z,56.10
2019-03-30T04:20:50.549Z,56.30
2019-03-30T04:23:17.168Z,56.20
2019-03-30T04:25:43.803Z,56.30
2019-03-30T04:28:10.677Z,56.50
2019-03-30T04:30:37.315Z,56.10
2019-03-30T04:33:03.827Z,56.80
2019-03-30T04:35:30.458Z,56.10
2019-03-30T04:37:57.095Z,56.30
2019-03-30T04:40:23.920Z,56.00
2019-03-30T04:42:50.545Z,55.80
2019-03-30T04:45:17.175Z,56.40
2019-03-30T04:47:44.207Z,56.20
2019-03-30T04:50:10.847Z,56.80
2019-03-30T04:52:37.462Z,58.10
2019-03-30T04:55:05.992Z,58.20
2019-03-30T04:57:32.670Z,59.00
2019-03-30T04:59:59.639Z,58.30
2019-03-30T05:02:26.290Z,58.30
2019-03-30T05:04:53.190Z,58.10
2019-03-30T05:07:19.814Z,58.00
2019-03-30T05:09:46.429Z,58.10
2019-03-30T05:12:13.247Z,58.00
2019-03-30T05:14:39.853Z,57.50
2019-03-30T05:17:06.872Z,57.90
2019-03-30T05:19:33.565Z,58.00
2019-03-30T05:22:11.543Z,58.00
2019-03-30T05:24:28.624Z,58.10
2019-03-30T05:26:55.784Z,58.30
2019-03-30T05:29:22.394Z,58.00
2019-03-30T05:31:49.032Z,57.80
2019-03-30T05:34:15.667Z,57.90
2019-03-30T05:36:42.269Z,57.80
2019-03-30T05:39:08.913Z,57.70
2019-03-30T05:41:35.567Z,58.00
2019-03-30T05:44:02.475Z,57.40
2019-03-30T05:46:29.166Z,57.60
2019-03-30T05:48:55.815Z,57.10
2019-03-30T05:51:22.442Z,57.70
2019-03-30T05:53:49.092Z,57.40
2019-03-30T05:56:15.743Z,57.10
2019-03-30T05:58:42.350Z,58.00
2019-03-30T06:01:08.992Z,57.60
2019-03-30T06:03:35.762Z,57.80
2019-03-30T06:06:02.536Z,57.50
2019-03-30T06:08:29.187Z,57.30
2019-03-30T06:10:55.839Z,57.30
2019-03-30T06:13:22.468Z,57.60
2019-03-30T06:15:49.101Z,57.30
2019-03-30T06:18:15.732Z,57.70
2019-03-30T06:20:42.339Z,57.60
2019-03-30T06:23:09.226Z,57.80
2019-03-30T06:25:36.139Z,57.70
2019-03-30T06:28:02.653Z,57.30
2019-03-30T06:30:29.310Z,57.30
2019-03-30T06:32:55.986Z,57.50
2019-03-30T06:35:22.687Z,57.90
2019-03-30T06:37:49.453Z,58.20
2019-03-30T06:40:16.113Z,58.70
2019-03-30T06:42:42.950Z,59.00
2019-03-30T06:45:09.770Z,59.60
2019-03-30T06:47:36.603Z,60.40
2019-03-30T06:50:07.090Z,61.10
2019-03-30T06:52:34.179Z,59.90
2019-03-30T06:55:00.798Z,62.50
2019-03-30T06:57:27.421Z,62.20
2019-03-30T06:59:54.042Z,61.40
2019-03-30T07:02:22.837Z,61.10
2019-03-30T07:04:50.368Z,62.80
2019-03-30T07:07:17.425Z,63.30
2019-03-30T07:09:47.713Z,63.90
2019-03-30T07:12:17.058Z,63.60
2019-03-30T07:14:47.274Z,64.70
2019-03-30T07:17:14.174Z,64.60
2019-03-30T07:19:43.551Z,63.90
2019-03-30T07:22:10.185Z,63.60
2019-03-30T07:24:36.844Z,63.10
2019-03-30T07:27:03.554Z,63.60
2019-03-30T07:29:30.174Z,63.70
2019-03-30T07:31:56.796Z,63.00
2019-03-30T07:34:23.432Z,62.60
2019-03-30T07:36:50.047Z,61.90
2019-03-30T07:39:17.289Z,61.70
2019-03-30T07:41:44.104Z,61.90
2019-03-30T07:44:10.735Z,62.60
2019-03-30T07:46:37.353Z,61.60
2019-03-30T07:49:04.000Z,61.60
2019-03-30T07:51:33.249Z,61.60
2019-03-30T07:53:59.122Z,61.60
2019-03-30T07:56:25.967Z,61.90
2019-03-30T07:58:52.631Z,62.40
2019-03-30T08:01:19.564Z,61.80
2019-03-30T08:03:46.183Z,61.90
2019-03-30T08:06:12.788Z,61.90
2019-03-30T08:08:39.664Z,61.10
2019-03-30T08:11:06.283Z,60.80
2019-03-30T08:13:32.902Z,61.40
2019-03-30T08:15:59.564Z,61.60
2019-03-30T08:18:26.057Z,60.70
2019-03-30T08:20:52.755Z,61.30
2019-03-30T08:23:19.552Z,60.80
2019-03-30T08:25:46.185Z,60.80
2019-03-30T08:28:12.801Z,60.10
2019-03-30T08:30:39.468Z,57.00
2019-03-30T08:33:06.099Z,53.80
2019-03-30T08:35:32.739Z,51.90
2019-03-30T08:37:59.690Z,51.90
2019-03-30T08:40:26.314Z,52.60
2019-03-30T08:42:52.948Z,51.10
2019-03-30T08:45:19.611Z,51.60
2019-03-30T08:47:46.138Z,51.30
2019-03-30T08:50:12.959Z,51.70
2019-03-30T08:52:39.745Z,52.00
2019-03-30T08:55:08.182Z,51.40
2019-03-30T08:57:35.004Z,50.60
2019-03-30T09:00:01.685Z,50.50
2019-03-30T09:02:28.318Z,50.10
2019-03-30T09:04:55.037Z,50.40
2019-03-30T09:07:21.689Z,50.40
2019-03-30T09:09:48.463Z,50.50
2019-03-30T09:12:15.383Z,50.40
2019-03-30T09:14:42.035Z,50.00
2019-03-30T09:17:08.661Z,49.50
2019-03-30T09:19:35.558Z,49.40
2019-03-30T09:22:02.231Z,49.50
2019-03-30T09:24:28.837Z,49.70
2019-03-30T09:26:55.486Z,49.90
2019-03-30T09:29:22.369Z,49.60
2019-03-30T09:31:48.975Z,49.30
2019-03-30T09:34:15.902Z,49.30
2019-03-30T09:36:42.866Z,49.10
2019-03-30T09:39:09.645Z,49.00
2019-03-30T09:41:36.366Z,49.00
2019-03-30T09:44:03.010Z,48.60
2019-03-30T09:46:29.631Z,48.70
2019-03-30T09:48:56.478Z,48.20
2019-03-30T09:51:23.127Z,48.60
2019-03-30T09:53:49.741Z,48.60
2019-03-30T09:56:16.405Z,48.60
2019-03-30T09:58:43.058Z,48.70
2019-03-30T10:01:09.592Z,48.60
2019-03-30T10:03:36.538Z,48.70
2019-03-30T10:06:03.291Z,48.30
2019-03-30T10:08:29.923Z,48.30
2019-03-30T10:10:56.557Z,48.30
2019-03-30T10:13:23.221Z,48.30
2019-03-30T10:15:49.932Z,48.50
2019-03-30T10:18:16.692Z,48.10
2019-03-30T10:20:43.334Z,48.40
2019-03-30T10:23:09.951Z,48.40
2019-03-30T10:25:36.587Z,48.50
2019-03-30T10:28:03.229Z,47.80
2019-03-30T10:30:29.845Z,48.10
2019-03-30T10:32:56.483Z,47.80
2019-03-30T10:35:23.144Z,47.90
2019-03-30T10:37:49.774Z,47.80
2019-03-30T10:40:16.394Z,47.90
2019-03-30T10:42:43.050Z,47.80
2019-03-30T10:45:09.865Z,46.90
2019-03-30T10:47:36.477Z,47.20
2019-03-30T10:50:05.705Z,47.80
2019-03-30T10:52:32.346Z,47.40
2019-03-30T10:54:58.859Z,47.40
2019-03-30T10:57:25.490Z,47.40
2019-03-30T10:59:52.142Z,47.20
2019-03-30T11:02:18.775Z,47.40
2019-03-30T11:04:45.419Z,47.40
2019-03-30T11:07:12.154Z,47.00
2019-03-30T11:09:39.447Z,47.20
2019-03-30T11:12:06.073Z,46.30
2019-03-30T11:14:32.714Z,46.50
2019-03-30T11:16:59.327Z,46.30
2019-03-30T11:19:26.227Z,46.20
2019-03-30T11:21:53.165Z,46.20
2019-03-30T11:24:19.783Z,46.00
2019-03-30T11:26:46.521Z,45.40
2019-03-30T11:29:13.154Z,45.60
2019-03-30T11:31:40.194Z,45.50
2019-03-30T11:34:06.849Z,45.70
2019-03-30T11:36:33.469Z,45.70
2019-03-30T11:39:00.083Z,45.70
2019-03-30T11:41:26.722Z,45.40
2019-03-30T11:43:53.338Z,45.70
2019-03-30T11:46:19.964Z,44.90
2019-03-30T11:48:46.615Z,44.90
2019-03-30T11:51:13.257Z,45.10
2019-03-30T11:53:39.877Z,44.80
2019-03-30T11:56:06.506Z,44.80
2019-03-30T11:58:33.237Z,44.60
2019-03-30T12:01:00.070Z,44.50
2019-03-30T12:03:26.703Z,43.70
2019-03-30T12:05:53.352Z,43.00
2019-03-30T12:08:19.978Z,42.30
2019-03-30T12:10:46.728Z,42.50
2019-03-30T12:13:13.350Z,42.60
2019-03-30T12:15:39.981Z,42.60
2019-03-30T12:18:07.025Z,42.20
2019-03-30T12:20:33.937Z,40.60
2019-03-30T12:23:00.566Z,41.30
2019-03-30T12:25:35.464Z,41.30
2019-03-30T12:27:55.618Z,40.80
2019-03-30T12:30:22.237Z,40.70
2019-03-30T12:32:48.889Z,40.00
2019-03-30T12:35:15.633Z,39.30
2019-03-30T12:37:42.242Z,39.10
2019-03-30T12:40:09.216Z,39.60
2019-03-30T12:42:37.209Z,37.70
2019-03-30T12:45:07.471Z,37.80
2019-03-30T12:47:34.150Z,37.30
2019-03-30T12:50:00.851Z,37.40
2019-03-30T12:52:27.491Z,36.70
2019-03-30T12:54:54.558Z,37.20
2019-03-30T12:57:21.178Z,36.00
2019-03-30T12:59:47.801Z,34.60
2019-03-30T13:02:14.429Z,34.90
2019-03-30T13:04:41.050Z,34.40
2019-03-30T13:07:07.676Z,35.00
2019-03-30T13:09:34.876Z,35.70
2019-03-30T13:12:02.289Z,35.90
2019-03-30T13:14:28.913Z,36.20
2019-03-30T13:16:55.548Z,36.00
2019-03-30T13:19:22.172Z,35.10
2019-03-30T13:21:53.162Z,35.80
2019-03-30T13:24:17.301Z,35.20
2019-03-30T13:26:43.955Z,36.10
2019-03-30T13:29:10.589Z,35.20
2019-03-30T13:31:37.223Z,36.20
2019-03-30T13:34:03.859Z,34.80
2019-03-30T13:36:40.425Z,35.40
2019-03-30T13:39:07.807Z,34.60
2019-03-30T13:41:35.559Z,34.80
2019-03-30T13:44:02.215Z,35.40
2019-03-30T13:46:29.094Z,35.40
2019-03-30T13:48:55.906Z,35.30
2019-03-30T13:51:22.741Z,34.30
2019-03-30T13:53:49.587Z,35.70
2019-03-30T13:56:17.638Z,34.60
2019-03-30T13:58:45.131Z,34.30
2019-03-30T14:01:11.946Z,34.90
2019-03-30T14:03:38.799Z,34.90
2019-03-30T14:06:05.619Z,34.60
2019-03-30T14:08:32.459Z,34.80
2019-03-30T14:10:59.426Z,34.50
2019-03-30T14:13:26.634Z,34.10
2019-03-30T14:15:53.282Z,33.80
2019-03-30T14:18:20.124Z,32.60
2019-03-30T14:20:47.196Z,33.20
2019-03-30T14:23:14.336Z,32.90
2019-03-30T14:25:41.150Z,33.70
2019-03-30T14:28:07.831Z,33.30
2019-03-30T14:30:34.684Z,32.50
2019-03-30T14:33:01.584Z,32.30
2019-03-30T14:35:28.451Z,32.50
2019-03-30T14:37:55.265Z,32.40
2019-03-30T14:40:22.104Z,31.90
2019-03-30T14:42:49.068Z,31.90
2019-03-30T14:45:15.791Z,31.60
2019-03-30T14:47:42.500Z,31.00
2019-03-30T14:50:09.718Z,30.40
2019-03-30T14:52:36.611Z,30.40
2019-03-30T14:55:06.370Z,30.60
2019-03-30T14:57:33.199Z,30.70
2019-03-30T15:00:00.025Z,30.40
2019-03-30T15:02:26.744Z,30.30
2019-03-30T15:04:53.583Z,30.70
2019-03-30T15:07:20.237Z,30.20
2019-03-30T15:09:46.868Z,29.30
2019-03-30T15:12:13.709Z,30.40
2019-03-30T15:14:40.753Z,29.00
2019-03-30T15:17:07.474Z,29.30
2019-03-30T15:19:34.410Z,29.40
2019-03-30T15:22:01.162Z,29.00
2019-03-30T15:24:27.786Z,29.40
2019-03-30T15:27:00.224Z,28.30
2019-03-30T15:29:22.897Z,28.60
2019-03-30T15:31:49.854Z,28.00
2019-03-30T15:34:16.648Z,27.80
2019-03-30T15:36:43.413Z,27.90
2019-03-30T15:39:10.321Z,28.80
2019-03-30T15:41:37.199Z,28.40
2019-03-30T15:44:03.930Z,27.80
2019-03-30T15:46:30.777Z,27.90
2019-03-30T15:48:57.438Z,28.60
2019-03-30T15:51:24.067Z,28.00
2019-03-30T15:53:50.799Z,27.10
2019-03-30T15:56:17.458Z,27.30
2019-03-30T15:58:44.186Z,27.10
2019-03-30T16:01:11.115Z,26.80
2019-03-30T16:03:37.854Z,27.10
2019-03-30T16:06:04.478Z,26.70
2019-03-30T16:08:31.123Z,27.30
2019-03-30T16:10:57.781Z,26.80
2019-03-30T16:13:24.399Z,26.70
2019-03-30T16:15:51.104Z,27.60
2019-03-30T16:18:17.783Z,26.80
2019-03-30T16:20:44.403Z,26.60
2019-03-30T16:23:11.258Z,27.10
2019-03-30T16:25:38.113Z,27.20
2019-03-30T16:28:04.631Z,27.00
2019-03-30T16:30:31.263Z,27.10
2019-03-30T16:32:57.903Z,27.10
2019-03-30T16:35:24.530Z,27.10
2019-03-30T16:37:51.169Z,26.90
2019-03-30T16:40:17.816Z,26.90
2019-03-30T16:42:44.329Z,26.50
2019-03-30T16:45:11.483Z,26.90
2019-03-30T16:47:38.113Z,27.20
2019-03-30T16:50:06.695Z,27.00
2019-03-30T16:52:33.291Z,27.40
2019-03-30T16:55:00.353Z,26.50
2019-03-30T16:57:27.339Z,26.70
2019-03-30T16:59:54.162Z,27.30
2019-03-30T17:02:21.119Z,27.00
2019-03-30T17:04:47.846Z,26.50
2019-03-30T17:07:14.666Z,26.00
2019-03-30T17:09:41.534Z,26.30
2019-03-30T17:12:08.343Z,26.20
2019-03-30T17:14:35.190Z,25.50
2019-03-30T17:17:02.543Z,25.10
2019-03-30T17:19:29.197Z,25.90
2019-03-30T17:21:55.828Z,25.00
2019-03-30T17:24:22.487Z,25.30
2019-03-30T17:26:49.143Z,24.70
2019-03-30T17:29:16.129Z,24.80
2019-03-30T17:31:42.806Z,25.20
2019-03-30T17:34:09.422Z,25.70
2019-03-30T17:36:36.078Z,25.30
2019-03-30T17:39:05.594Z,25.50
2019-03-30T17:41:32.119Z,25.80
2019-03-30T17:43:58.814Z,26.00
2019-03-30T17:46:25.455Z,25.30
2019-03-30T17:48:52.093Z,25.20
2019-03-30T17:51:18.816Z,25.30
2019-03-30T17:53:45.459Z,25.40
2019-03-30T17:56:12.134Z,25.90
2019-03-30T17:58:38.730Z,26.00
2019-03-30T18:01:05.360Z,25.80
2019-03-30T18:03:31.990Z,26.80
2019-03-30T18:05:58.824Z,26.60
2019-03-30T18:08:25.476Z,26.60
2019-03-30T18:10:52.101Z,27.00
2019-03-30T18:13:18.716Z,26.00
2019-03-30T18:15:45.473Z,26.60
2019-03-30T18:18:12.980Z,26.80
2019-03-30T18:20:39.698Z,26.60
2019-03-30T18:23:06.435Z,27.20
2019-03-30T18:25:33.030Z,27.20
2019-03-30T18:27:59.655Z,26.40
2019-03-30T18:30:38.730Z,27.40
2019-03-30T18:33:05.579Z,27.40
2019-03-30T18:35:32.818Z,28.80
2019-03-30T18:38:01.885Z,28.80
2019-03-30T18:40:30.506Z,29.10
2019-03-30T18:42:57.450Z,29.30
2019-03-30T18:45:26.035Z,29.10
2019-03-30T18:47:55.178Z,29.80
2019-03-30T18:50:21.950Z,29.70
2019-03-30T18:52:48.609Z,30.90
2019-03-30T18:55:18.835Z,31.10
2019-03-30T18:57:45.451Z,31.00
2019-03-30T19:00:15.391Z,31.70
2019-03-30T19:02:42.050Z,32.10
2019-03-30T19:05:08.675Z,32.20
2019-03-30T19:07:35.304Z,31.70
2019-03-30T19:10:03.331Z,32.10
2019-03-30T19:12:30.156Z,32.30
2019-03-30T19:14:56.822Z,33.00
2019-03-30T19:17:23.426Z,32.90
2019-03-30T19:19:50.573Z,33.00
2019-03-30T19:22:17.539Z,33.00
2019-03-30T19:24:44.167Z,33.60
2019-03-30T19:27:10.807Z,33.40
2019-03-30T19:29:37.494Z,33.70
2019-03-30T19:32:04.377Z,34.10
2019-03-30T19:34:31.108Z,34.40
2019-03-30T19:36:57.751Z,34.10
2019-03-30T19:39:24.374Z,34.30
2019-03-30T19:41:50.895Z,34.60
2019-03-30T19:44:17.645Z,34.40
2019-03-30T19:46:44.245Z,34.70
2019-03-30T19:49:10.893Z,35.80
2019-03-30T19:51:37.786Z,35.00
2019-03-30T19:54:04.400Z,35.60
2019-03-30T19:56:31.037Z,36.20
2019-03-30T19:59:10.152Z,35.50
2019-03-30T20:01:26.122Z,35.30
2019-03-30T20:03:52.954Z,35.70
2019-03-30T20:06:19.611Z,35.60
2019-03-30T20:08:46.249Z,35.90
2019-03-30T20:11:12.930Z,36.10
2019-03-30T20:13:39.936Z,36.00
2019-03-30T20:16:06.612Z,35.80
2019-03-30T20:18:33.197Z,36.30
2019-03-30T20:20:59.843Z,35.80
2019-03-30T20:23:26.454Z,36.10
2019-03-30T20:25:53.089Z,35.80
2019-03-30T20:28:19.742Z,35.90
2019-03-30T20:30:46.367Z,35.80
2019-03-30T20:33:13.249Z,35.80
2019-03-30T20:35:39.843Z,35.70
2019-03-30T20:38:06.467Z,35.80
2019-03-30T20:40:33.109Z,35.80
2019-03-30T20:42:59.745Z,35.90
2019-03-30T20:45:26.417Z,35.80
2019-03-30T20:47:53.054Z,35.90
2019-03-30T20:50:19.690Z,35.80
2019-03-30T20:52:46.475Z,35.70
2019-03-30T20:55:13.178Z,35.60
2019-03-30T20:57:39.823Z,35.70
2019-03-30T21:00:09.346Z,35.90
2019-03-30T21:02:35.975Z,35.90
2019-03-30T21:05:04.403Z,35.90
2019-03-30T21:07:31.022Z,36.00
2019-03-30T21:09:57.636Z,36.20
2019-03-30T21:12:24.425Z,36.30
2019-03-30T21:14:51.046Z,36.20
2019-03-30T21:17:17.681Z,36.20
2019-03-30T21:19:44.377Z,36.20
2019-03-30T21:22:11.019Z,36.00
2019-03-30T21:24:37.633Z,35.90
2019-03-30T21:27:04.320Z,36.00
2019-03-30T21:29:30.931Z,36.10
2019-03-30T21:31:57.570Z,35.80
2019-03-30T21:34:24.229Z,35.80
2019-03-30T21:36:50.840Z,36.00
2019-03-30T21:39:17.477Z,36.00
2019-03-30T21:41:44.359Z,36.00
2019-03-30T21:44:21.307Z,36.10
2019-03-30T21:46:39.624Z,36.10
2019-03-30T21:49:06.398Z,36.20
2019-03-30T21:51:33.023Z,36.20
2019-03-30T21:53:59.779Z,36.30
2019-03-30T21:56:26.612Z,36.30
2019-03-30T21:58:53.258Z,36.30
2019-03-30T22:01:19.882Z,36.40
2019-03-30T22:03:46.538Z,36.40
2019-03-30T22:06:13.363Z,36.50
2019-03-30T22:08:40.721Z,36.40
2019-03-30T22:11:07.334Z,36.50
2019-03-30T22:13:33.974Z,36.70
2019-03-30T22:16:00.631Z,36.60
2019-03-30T22:18:27.562Z,37.10
2019-03-30T22:20:54.263Z,40.20
2019-03-30T22:23:20.871Z,39.40
2019-03-30T22:25:47.725Z,39.70
2019-03-30T22:28:14.399Z,40.40
2019-03-30T22:30:40.951Z,40.70
2019-03-30T22:33:07.989Z,41.60
2019-03-30T22:35:34.646Z,42.30
2019-03-30T22:38:01.252Z,42.00
2019-03-30T22:40:27.908Z,41.90
2019-03-30T22:42:54.561Z,42.20
2019-03-30T22:45:21.170Z,41.30
2019-03-30T22:47:48.048Z,41.40
2019-03-30T22:50:14.686Z,41.40
2019-03-30T22:52:41.306Z,42.10
2019-03-30T22:55:08.303Z,42.90
2019-03-30T22:57:34.924Z,43.20
2019-03-30T23:00:01.540Z,43.70
2019-03-30T23:02:28.193Z,44.40
2019-03-30T23:04:54.833Z,45.10
2019-03-30T23:07:21.451Z,44.90
2019-03-30T23:09:48.081Z,45.40
2019-03-30T23:12:14.718Z,46.00
2019-03-30T23:14:41.533Z,45.40
2019-03-30T23:17:08.098Z,46.60
2019-03-30T23:19:34.762Z,47.90
2019-03-30T23:22:01.438Z,48.10
2019-03-30T23:24:28.101Z,47.90
2019-03-30T23:26:54.742Z,47.60
2019-03-30T23:29:21.466Z,48.10
2019-03-30T23:31:48.099Z,47.30
2019-03-30T23:34:14.818Z,47.40
2019-03-30T23:36:41.391Z,48.20
2019-03-30T23:39:08.053Z,48.30
2019-03-30T23:41:34.670Z,49.10
2019-03-30T23:44:01.590Z,48.80
2019-03-30T23:46:28.215Z,49.80
2019-03-30T23:48:55.158Z,49.90
2019-03-30T23:51:21.776Z,50.10
2019-03-30T23:53:48.430Z,50.20
2019-03-30T23:56:19.768Z,50.40
2019-03-30T23:58:46.390Z,50.40
